sensor_id;sensor_type;location;lat;lon;timestamp;pressure;altitude;pressure_sealevel;temperature;humidity
12146;BME280;6136;47.032;15.398;2023-05-19T00:02:20;98126.59;;;11.61;100.00
12146;BME280;6136;47.032;15.398;2023-05-19T00:04:51;98129.66;;;11.69;100.00
12146;BME280;6136;47.032;15.398;2023-05-19T00:07:23;98112.97;;;11.67;100.00
12146;BME280;6136;47.032;15.398;2023-05-19T00:09:56;98121.69;;;11.69;100.00
12146;BME280;6136;47.032;15.398;2023-05-19T00:12:25;98109.53;;;11.65;100.00
12146;BME280;6136;47.032;15.398;2023-05-19T00:14:54;98112.19;;;11.65;100.00
12146;BME280;6136;47.032;15.398;2023-05-19T00:17:23;98110.59;;;11.62;100.00
12146;BME280;6136;47.032;15.398;2023-05-19T00:19:52;98099.47;;;11.56;100.00
12146;BME280;6136;47.032;15.398;2023-05-19T00:22:21;98100.28;;;11.56;100.00
12146;BME280;6136;47.032;15.398;2023-05-19T00:24:49;98105.34;;;11.61;100.00
12146;BME280;6136;47.032;15.398;2023-05-19T00:27:18;98096.97;;;11.53;100.00
12146;BME280;6136;47.032;15.398;2023-05-19T00:29:46;98094.41;;;11.51;100.00
12146;BME280;6136;47.032;15.398;2023-05-19T00:32:14;98109.13;;;11.57;100.00
12146;BME280;6136;47.032;15.398;2023-05-19T00:34:43;98115.41;;;11.56;100.00
12146;BME280;6136;47.032;15.398;2023-05-19T00:37:15;98116.06;;;11.59;100.00
12146;BME280;6136;47.032;15.398;2023-05-19T00:39:43;98100.41;;;11.55;100.00
12146;BME280;6136;47.032;15.398;2023-05-19T00:42:11;98096.41;;;11.48;100.00
12146;BME280;6136;47.032;15.398;2023-05-19T00:44:40;98105.72;;;11.55;100.00
12146;BME280;6136;47.032;15.398;2023-05-19T00:47:08;98099.06;;;11.48;100.00
12146;BME280;6136;47.032;15.398;2023-05-19T00:49:37;98113.84;;;11.52;100.00
12146;BME280;6136;47.032;15.398;2023-05-19T00:52:06;98108.69;;;11.49;100.00
12146;BME280;6136;47.032;15.398;2023-05-19T00:54:35;98108.69;;;11.49;100.00
12146;BME280;6136;47.032;15.398;2023-05-19T00:57:04;98101.69;;;11.48;100.00
12146;BME280;6136;47.032;15.398;2023-05-19T00:59:32;98095.03;;;11.41;100.00
12146;BME280;6136;47.032;15.398;2023-05-19T01:02:02;98112.63;;;11.42;100.00
12146;BME280;6136;47.032;15.398;2023-05-19T01:04:30;98112.13;;;11.35;100.00
12146;BME280;6136;47.032;15.398;2023-05-19T01:07:02;98093.13;;;11.27;100.00
12146;BME280;6136;47.032;15.398;2023-05-19T01:09:30;98096.50;;;11.31;100.00
12146;BME280;6136;47.032;15.398;2023-05-19T01:12:01;98086.38;;;11.21;100.00
12146;BME280;6136;47.032;15.398;2023-05-19T01:14:29;98096.22;;;11.35;100.00
12146;BME280;6136;47.032;15.398;2023-05-19T01:17:02;98107.88;;;11.33;100.00
12146;BME280;6136;47.032;15.398;2023-05-19T01:19:45;98104.09;;;11.37;100.00
12146;BME280;6136;47.032;15.398;2023-05-19T01:22:35;98100.84;;;11.32;100.00
12146;BME280;6136;47.032;15.398;2023-05-19T01:25:28;98108.03;;;11.29;100.00
12146;BME280;6136;47.032;15.398;2023-05-19T01:28:30;98104.53;;;11.29;100.00
12146;BME280;6136;47.032;15.398;2023-05-19T01:31:05;98106.50;;;11.25;100.00
12146;BME280;6136;47.032;15.398;2023-05-19T01:33:38;98095.28;;;11.20;100.00
12146;BME280;6136;47.032;15.398;2023-05-19T01:36:10;98098.13;;;11.17;100.00
12146;BME280;6136;47.032;15.398;2023-05-19T01:38:39;98099.22;;;11.13;100.00
12146;BME280;6136;47.032;15.398;2023-05-19T01:41:08;98103.78;;;11.11;100.00
12146;BME280;6136;47.032;15.398;2023-05-19T01:43:38;98094.34;;;11.06;100.00
12146;BME280;6136;47.032;15.398;2023-05-19T01:46:09;98101.72;;;11.01;100.00
12146;BME280;6136;47.032;15.398;2023-05-19T01:48:37;98103.88;;;11.10;100.00
12146;BME280;6136;47.032;15.398;2023-05-19T01:51:06;98106.44;;;11.11;100.00
12146;BME280;6136;47.032;15.398;2023-05-19T01:53:34;98109.09;;;11.11;100.00
12146;BME280;6136;47.032;15.398;2023-05-19T01:56:04;98090.75;;;11.07;100.00
12146;BME280;6136;47.032;15.398;2023-05-19T01:58:37;98102.31;;;11.06;100.00
12146;BME280;6136;47.032;15.398;2023-05-19T02:01:20;98087.31;;;11.05;100.00
12146;BME280;6136;47.032;15.398;2023-05-19T02:04:00;98103.78;;;11.11;100.00
12146;BME280;6136;47.032;15.398;2023-05-19T02:06:41;98093.19;;;11.11;100.00
12146;BME280;6136;47.032;15.398;2023-05-19T02:09:17;98091.47;;;11.10;100.00
12146;BME280;6136;47.032;15.398;2023-05-19T02:11:53;98096.41;;;11.16;100.00
12146;BME280;6136;47.032;15.398;2023-05-19T02:14:24;98075.53;;;11.10;100.00
12146;BME280;6136;47.032;15.398;2023-05-19T02:16:59;98072.28;;;11.05;100.00
12146;BME280;6136;47.032;15.398;2023-05-19T02:19:34;98073.13;;;11.06;100.00
12146;BME280;6136;47.032;15.398;2023-05-19T02:22:03;98084.25;;;11.12;100.00
12146;BME280;6136;47.032;15.398;2023-05-19T02:24:31;98080.94;;;11.09;100.00
12146;BME280;6136;47.032;15.398;2023-05-19T02:26:59;98078.19;;;11.10;100.00
12146;BME280;6136;47.032;15.398;2023-05-19T02:29:28;98082.56;;;11.11;100.00
12146;BME280;6136;47.032;15.398;2023-05-19T02:31:59;98079.91;;;11.11;100.00
12146;BME280;6136;47.032;15.398;2023-05-19T02:34:28;98084.50;;;11.08;100.00
12146;BME280;6136;47.032;15.398;2023-05-19T02:36:56;98069.72;;;11.04;100.00
12146;BME280;6136;47.032;15.398;2023-05-19T02:39:25;98083.66;;;11.07;100.00
12146;BME280;6136;47.032;15.398;2023-05-19T02:41:55;98087.00;;;11.11;100.00
12146;BME280;6136;47.032;15.398;2023-05-19T02:44:23;98086.03;;;11.12;100.00
12146;BME280;6136;47.032;15.398;2023-05-19T02:46:51;98087.88;;;11.11;100.00
12146;BME280;6136;47.032;15.398;2023-05-19T02:49:21;98082.56;;;11.11;100.00
12146;BME280;6136;47.032;15.398;2023-05-19T02:51:49;98077.25;;;11.11;100.00
12146;BME280;6136;47.032;15.398;2023-05-19T02:54:18;98078.63;;;11.18;100.00
12146;BME280;6136;47.032;15.398;2023-05-19T02:56:46;98077.06;;;11.14;100.00
12146;BME280;6136;47.032;15.398;2023-05-19T02:59:15;98081.50;;;11.14;100.00
12146;BME280;6136;47.032;15.398;2023-05-19T03:01:43;98079.56;;;11.17;100.00
12146;BME280;6136;47.032;15.398;2023-05-19T03:04:12;98076.91;;;11.17;100.00
12146;BME280;6136;47.032;15.398;2023-05-19T03:06:42;98081.28;;;11.18;100.00
12146;BME280;6136;47.032;15.398;2023-05-19T03:09:11;98076.72;;;11.20;100.00
12146;BME280;6136;47.032;15.398;2023-05-19T03:11:40;98082.22;;;11.17;100.00
12146;BME280;6136;47.032;15.398;2023-05-19T03:14:08;98081.34;;;11.17;100.00
12146;BME280;6136;47.032;15.398;2023-05-19T03:16:37;98079.81;;;11.13;100.00
12146;BME280;6136;47.032;15.398;2023-05-19T03:19:07;98079.44;;;11.19;100.00
12146;BME280;6136;47.032;15.398;2023-05-19T03:21:36;98070.75;;;11.17;100.00
12146;BME280;6136;47.032;15.398;2023-05-19T03:24:06;98075.00;;;11.19;100.00
12146;BME280;6136;47.032;15.398;2023-05-19T03:26:34;98066.66;;;11.11;100.00
12146;BME280;6136;47.032;15.398;2023-05-19T03:29:02;98066.13;;;11.05;100.00
12146;BME280;6136;47.032;15.398;2023-05-19T03:31:34;98078.63;;;11.18;100.00
12146;BME280;6136;47.032;15.398;2023-05-19T03:34:03;98078.50;;;11.20;100.00
12146;BME280;6136;47.032;15.398;2023-05-19T03:36:32;98075.00;;;11.19;100.00
12146;BME280;6136;47.032;15.398;2023-05-19T03:39:12;98064.75;;;11.13;100.00
12146;BME280;6136;47.032;15.398;2023-05-19T03:41:40;98070.91;;;11.14;100.00
12146;BME280;6136;47.032;15.398;2023-05-19T03:44:09;98081.16;;;11.20;100.00
12146;BME280;6136;47.032;15.398;2023-05-19T03:46:37;98074.16;;;11.19;100.00
12146;BME280;6136;47.032;15.398;2023-05-19T03:49:05;98084.69;;;11.20;100.00
12146;BME280;6136;47.032;15.398;2023-05-19T03:51:57;98085.19;;;11.27;100.00
12146;BME280;6136;47.032;15.398;2023-05-19T03:54:49;98081.59;;;11.28;100.00
12146;BME280;6136;47.032;15.398;2023-05-19T03:57:18;98082.63;;;11.25;100.00
12146;BME280;6136;47.032;15.398;2023-05-19T03:59:47;98080.66;;;11.29;100.00
12146;BME280;6136;47.032;15.398;2023-05-19T04:02:15;98068.53;;;11.25;100.00
12146;BME280;6136;47.032;15.398;2023-05-19T04:04:43;98088.69;;;11.27;100.00
12146;BME280;6136;47.032;15.398;2023-05-19T04:07:12;98089.38;;;11.31;100.00
12146;BME280;6136;47.032;15.398;2023-05-19T04:09:41;98090.06;;;11.35;100.00
12146;BME280;6136;47.032;15.398;2023-05-19T04:12:10;98088.38;;;11.34;100.00
12146;BME280;6136;47.032;15.398;2023-05-19T04:14:39;98091.97;;;11.33;100.00
12146;BME280;6136;47.032;15.398;2023-05-19T04:17:08;98101.78;;;11.31;100.00
12146;BME280;6136;47.032;15.398;2023-05-19T04:19:37;98086.72;;;11.31;100.00
12146;BME280;6136;47.032;15.398;2023-05-19T04:22:05;98105.72;;;11.39;100.00
12146;BME280;6136;47.032;15.398;2023-05-19T04:24:34;98110.25;;;11.37;100.00
12146;BME280;6136;47.032;15.398;2023-05-19T04:27:02;98116.34;;;11.39;100.00
12146;BME280;6136;47.032;15.398;2023-05-19T04:29:32;98118.16;;;11.39;100.00
12146;BME280;6136;47.032;15.398;2023-05-19T04:32:01;98113.63;;;11.41;100.00
12146;BME280;6136;47.032;15.398;2023-05-19T04:34:33;98129.44;;;11.42;100.00
12146;BME280;6136;47.032;15.398;2023-05-19T04:37:03;98123.09;;;11.45;100.00
12146;BME280;6136;47.032;15.398;2023-05-19T04:39:33;98123.44;;;11.39;100.00
12146;BME280;6136;47.032;15.398;2023-05-19T04:42:05;98130.47;;;11.40;100.00
12146;BME280;6136;47.032;15.398;2023-05-19T04:44:36;98126.34;;;11.50;100.00
12146;BME280;6136;47.032;15.398;2023-05-19T04:47:06;98130.72;;;11.51;100.00
12146;BME280;6136;47.032;15.398;2023-05-19T04:49:35;98136.09;;;11.49;100.00
12146;BME280;6136;47.032;15.398;2023-05-19T04:52:06;98137.16;;;11.47;100.00
12146;BME280;6136;47.032;15.398;2023-05-19T04:54:37;98139.72;;;11.48;100.00
12146;BME280;6136;47.032;15.398;2023-05-19T04:57:10;98143.91;;;11.52;100.00
12146;BME280;6136;47.032;15.398;2023-05-19T04:59:40;98141.16;;;11.54;100.00
12146;BME280;6136;47.032;15.398;2023-05-19T05:02:09;98141.38;;;11.65;100.00
12146;BME280;6136;47.032;15.398;2023-05-19T05:04:37;98143.19;;;11.64;100.00
12146;BME280;6136;47.032;15.398;2023-05-19T05:07:08;98142.25;;;11.65;100.00
12146;BME280;6136;47.032;15.398;2023-05-19T05:09:37;98153.38;;;11.72;100.00
12146;BME280;6136;47.032;15.398;2023-05-19T05:12:07;98153.28;;;11.74;100.00
12146;BME280;6136;47.032;15.398;2023-05-19T05:14:38;98156.56;;;11.79;100.00
12146;BME280;6136;47.032;15.398;2023-05-19T05:17:10;98154.59;;;11.82;100.00
12146;BME280;6136;47.032;15.398;2023-05-19T05:19:41;98153.22;;;11.75;100.00
12146;BME280;6136;47.032;15.398;2023-05-19T05:22:10;98154.00;;;11.77;100.00
12146;BME280;6136;47.032;15.398;2023-05-19T05:24:39;98165.56;;;11.76;100.00
12146;BME280;6136;47.032;15.398;2023-05-19T05:27:07;98157.69;;;11.75;100.00
12146;BME280;6136;47.032;15.398;2023-05-19T05:29:36;98162.13;;;11.74;100.00
12146;BME280;6136;47.032;15.398;2023-05-19T05:32:06;98161.19;;;11.75;100.00
12146;BME280;6136;47.032;15.398;2023-05-19T05:34:36;98162.06;;;11.76;100.00
12146;BME280;6136;47.032;15.398;2023-05-19T05:37:06;98162.63;;;11.81;100.00
12146;BME280;6136;47.032;15.398;2023-05-19T05:39:35;98170.34;;;11.85;100.00
12146;BME280;6136;47.032;15.398;2023-05-19T05:42:04;98172.41;;;11.80;100.00
12146;BME280;6136;47.032;15.398;2023-05-19T05:44:33;98170.69;;;11.79;100.00
12146;BME280;6136;47.032;15.398;2023-05-19T05:47:05;98166.22;;;11.80;100.00
12146;BME280;6136;47.032;15.398;2023-05-19T05:49:36;98163.00;;;11.75;100.00
12146;BME280;6136;47.032;15.398;2023-05-19T05:52:07;98175.41;;;11.90;100.00
12146;BME280;6136;47.032;15.398;2023-05-19T05:54:43;98177.78;;;11.94;100.00
12146;BME280;6136;47.032;15.398;2023-05-19T05:57:15;98174.31;;;12.08;100.00
12146;BME280;6136;47.032;15.398;2023-05-19T05:59:43;98174.91;;;12.13;100.00
12146;BME280;6136;47.032;15.398;2023-05-19T06:02:13;98185.47;;;12.15;100.00
12146;BME280;6136;47.032;15.398;2023-05-19T06:04:43;98182.13;;;12.11;100.00
12146;BME280;6136;47.032;15.398;2023-05-19T06:07:12;98184.50;;;12.16;100.00
12146;BME280;6136;47.032;15.398;2023-05-19T06:09:40;98176.72;;;12.13;100.00
12146;BME280;6136;47.032;15.398;2023-05-19T06:12:08;98192.38;;;12.17;100.00
12146;BME280;6136;47.032;15.398;2023-05-19T06:14:42;98193.72;;;12.24;100.00
12146;BME280;6136;47.032;15.398;2023-05-19T06:17:37;98184.16;;;12.22;100.00
12146;BME280;6136;47.032;15.398;2023-05-19T06:20:08;98183.94;;;12.25;100.00
12146;BME280;6136;47.032;15.398;2023-05-19T06:22:37;98192.25;;;12.34;100.00
12146;BME280;6136;47.032;15.398;2023-05-19T06:25:06;98195.38;;;12.41;100.00
12146;BME280;6136;47.032;15.398;2023-05-19T06:27:35;98201.88;;;12.51;100.00
12146;BME280;6136;47.032;15.398;2023-05-19T06:30:05;98201.13;;;12.63;100.00
12146;BME280;6136;47.032;15.398;2023-05-19T06:32:43;98204.56;;;12.65;100.00
12146;BME280;6136;47.032;15.398;2023-05-19T06:35:13;98199.25;;;12.65;100.00
12146;BME280;6136;47.032;15.398;2023-05-19T06:37:42;98195.72;;;12.51;100.00
12146;BME280;6136;47.032;15.398;2023-05-19T06:40:11;98196.97;;;12.59;100.00
12146;BME280;6136;47.032;15.398;2023-05-19T06:42:41;98199.53;;;12.75;100.00
12146;BME280;6136;47.032;15.398;2023-05-19T06:45:15;98197.72;;;12.75;100.00
12146;BME280;6136;47.032;15.398;2023-05-19T06:47:49;98197.00;;;13.02;100.00
12146;BME280;6136;47.032;15.398;2023-05-19T06:50:19;98201.25;;;13.04;100.00
12146;BME280;6136;47.032;15.398;2023-05-19T06:52:49;98181.41;;;13.10;100.00
12146;BME280;6136;47.032;15.398;2023-05-19T06:55:17;98194.34;;;13.16;100.00
12146;BME280;6136;47.032;15.398;2023-05-19T06:57:48;98182.81;;;13.44;100.00
12146;BME280;6136;47.032;15.398;2023-05-19T07:00:18;98194.50;;;13.41;100.00
12146;BME280;6136;47.032;15.398;2023-05-19T07:02:51;98188.19;;;13.56;99.99
12146;BME280;6136;47.032;15.398;2023-05-19T07:05:21;98190.28;;;13.66;99.55
12146;BME280;6136;47.032;15.398;2023-05-19T07:07:54;98186.97;;;13.62;100.00
12146;BME280;6136;47.032;15.398;2023-05-19T07:10:26;98185.06;;;13.50;100.00
12146;BME280;6136;47.032;15.398;2023-05-19T07:12:55;98174.88;;;13.71;97.67
12146;BME280;6136;47.032;15.398;2023-05-19T07:15:27;98191.59;;;13.99;100.00
12146;BME280;6136;47.032;15.398;2023-05-19T07:17:57;98181.56;;;13.90;96.12
12146;BME280;6136;47.032;15.398;2023-05-19T07:20:27;98179.50;;;14.21;98.36
12146;BME280;6136;47.032;15.398;2023-05-19T07:22:56;98184.00;;;14.33;95.59
12146;BME280;6136;47.032;15.398;2023-05-19T07:25:25;98169.06;;;14.30;92.80
12146;BME280;6136;47.032;15.398;2023-05-19T07:27:56;98183.75;;;14.50;92.81
12146;BME280;6136;47.032;15.398;2023-05-19T07:32:54;98166.38;;;14.70;93.77
12146;BME280;6136;47.032;15.398;2023-05-19T07:35:23;98177.69;;;14.86;94.23
12146;BME280;6136;47.032;15.398;2023-05-19T07:37:52;98169.69;;;14.99;92.63
12146;BME280;6136;47.032;15.398;2023-05-19T07:40:21;98167.03;;;15.11;89.07
12146;BME280;6136;47.032;15.398;2023-05-19T07:42:49;98164.25;;;15.00;89.22
12146;BME280;6136;47.032;15.398;2023-05-19T07:45:18;98161.47;;;15.02;91.32
12146;BME280;6136;47.032;15.398;2023-05-19T07:47:46;98159.88;;;15.61;83.44
12146;BME280;6136;47.032;15.398;2023-05-19T07:50:14;98154.84;;;15.93;82.12
12146;BME280;6136;47.032;15.398;2023-05-19T07:52:43;98160.97;;;16.06;80.72
12146;BME280;6136;47.032;15.398;2023-05-19T07:55:13;98145.81;;;16.18;79.39
12146;BME280;6136;47.032;15.398;2023-05-19T07:57:41;98158.13;;;15.97;80.47
12146;BME280;6136;47.032;15.398;2023-05-19T08:00:10;98161.19;;;16.38;80.05
12146;BME280;6136;47.032;15.398;2023-05-19T08:02:40;98155.13;;;16.36;76.59
12146;BME280;6136;47.032;15.398;2023-05-19T08:05:08;98157.31;;;16.77;76.55
12146;BME280;6136;47.032;15.398;2023-05-19T08:07:37;98158.31;;;16.17;79.35
12146;BME280;6136;47.032;15.398;2023-05-19T08:10:06;98155.22;;;16.69;77.64
12146;BME280;6136;47.032;15.398;2023-05-19T08:12:36;98150.03;;;17.13;71.86
12146;BME280;6136;47.032;15.398;2023-05-19T08:15:05;98146.41;;;17.02;72.01
12146;BME280;6136;47.032;15.398;2023-05-19T08:17:33;98149.94;;;17.25;70.89
12146;BME280;6136;47.032;15.398;2023-05-19T08:20:02;98152.09;;;17.54;71.09
12146;BME280;6136;47.032;15.398;2023-05-19T08:22:32;98139.88;;;17.72;71.42
12146;BME280;6136;47.032;15.398;2023-05-19T08:25:00;98138.19;;;17.71;70.96
12146;BME280;6136;47.032;15.398;2023-05-19T08:27:29;98143.91;;;18.09;68.07
12146;BME280;6136;47.032;15.398;2023-05-19T08:29:59;98139.91;;;17.27;72.52
12146;BME280;6136;47.032;15.398;2023-05-19T08:32:28;98145.97;;;17.74;69.35
12146;BME280;6136;47.032;15.398;2023-05-19T08:34:57;98144.50;;;17.59;67.88
12146;BME280;6136;47.032;15.398;2023-05-19T08:37:26;98145.16;;;17.40;67.99
12146;BME280;6136;47.032;15.398;2023-05-19T08:39:54;98154.91;;;17.30;67.36
12146;BME280;6136;47.032;15.398;2023-05-19T08:42:23;98141.22;;;16.31;74.44
12146;BME280;6136;47.032;15.398;2023-05-19T08:44:51;98149.53;;;16.39;72.23
12146;BME280;6136;47.032;15.398;2023-05-19T08:47:21;98154.16;;;16.37;73.07
12146;BME280;6136;47.032;15.398;2023-05-19T08:49:52;98152.19;;;16.39;73.20
12146;BME280;6136;47.032;15.398;2023-05-19T08:52:26;98150.75;;;16.00;78.76
12146;BME280;6136;47.032;15.398;2023-05-19T08:55:03;98152.13;;;16.17;77.91
12146;BME280;6136;47.032;15.398;2023-05-19T08:57:32;98151.16;;;16.18;79.61
12146;BME280;6136;47.032;15.398;2023-05-19T09:00:01;98151.94;;;16.31;76.93
12146;BME280;6136;47.032;15.398;2023-05-19T09:02:33;98147.09;;;16.36;77.00
12146;BME280;6136;47.032;15.398;2023-05-19T09:05:09;98153.91;;;16.40;76.44
12146;BME280;6136;47.032;15.398;2023-05-19T09:07:38;98146.38;;;16.45;77.45
12146;BME280;6136;47.032;15.398;2023-05-19T09:10:09;98156.38;;;16.43;77.84
12146;BME280;6136;47.032;15.398;2023-05-19T09:12:41;98147.19;;;16.69;78.56
12146;BME280;6136;47.032;15.398;2023-05-19T09:15:15;98132.63;;;17.07;74.54
12146;BME280;6136;47.032;15.398;2023-05-19T09:17:46;98147.72;;;17.19;75.08
12146;BME280;6136;47.032;15.398;2023-05-19T09:20:15;98145.78;;;17.21;74.61
12146;BME280;6136;47.032;15.398;2023-05-19T09:22:44;98146.72;;;17.54;74.59
12146;BME280;6136;47.032;15.398;2023-05-19T09:25:17;98148.66;;;17.74;73.29
12146;BME280;6136;47.032;15.398;2023-05-19T09:27:46;98149.13;;;18.43;65.28
12146;BME280;6136;47.032;15.398;2023-05-19T09:30:16;98146.59;;;18.62;64.89
12146;BME280;6136;47.032;15.398;2023-05-19T09:32:46;98146.16;;;19.38;61.81
12146;BME280;6136;47.032;15.398;2023-05-19T09:35:14;98143.63;;;20.15;58.28
12146;BME280;6136;47.032;15.398;2023-05-19T09:37:46;98136.69;;;20.03;60.29
12146;BME280;6136;47.032;15.398;2023-05-19T09:40:14;98131.94;;;19.57;64.23
12146;BME280;6136;47.032;15.398;2023-05-19T09:42:43;98135.47;;;19.18;63.67
12146;BME280;6136;47.032;15.398;2023-05-19T09:45:11;98135.25;;;20.09;62.54
12146;BME280;6136;47.032;15.398;2023-05-19T09:47:40;98134.44;;;19.99;59.04
12146;BME280;6136;47.032;15.398;2023-05-19T09:50:11;98133.75;;;19.47;60.77
12146;BME280;6136;47.032;15.398;2023-05-19T09:52:42;98125.59;;;18.97;62.33
12146;BME280;6136;47.032;15.398;2023-05-19T09:55:11;98127.72;;;18.52;64.08
12146;BME280;6136;47.032;15.398;2023-05-19T09:57:40;98122.59;;;18.29;65.57
12146;BME280;6136;47.032;15.398;2023-05-19T10:00:09;98120.75;;;19.22;62.69
12146;BME280;6136;47.032;15.398;2023-05-19T10:02:45;98121.25;;;21.10;59.49
12146;BME280;6136;47.032;15.398;2023-05-19T10:05:16;98105.34;;;22.77;49.26
12146;BME280;6136;47.032;15.398;2023-05-19T10:07:49;98103.88;;;22.83;51.54
12146;BME280;6136;47.032;15.398;2023-05-19T10:10:18;98111.56;;;22.52;49.38
12146;BME280;6136;47.032;15.398;2023-05-19T10:12:47;98116.59;;;22.12;50.49
12146;BME280;6136;47.032;15.398;2023-05-19T10:15:17;98126.59;;;21.84;53.51
12146;BME280;6136;47.032;15.398;2023-05-19T10:17:49;98100.91;;;22.51;49.56
12146;BME280;6136;47.032;15.398;2023-05-19T10:20:18;98104.97;;;22.72;52.79
12146;BME280;6136;47.032;15.398;2023-05-19T10:22:47;98113.91;;;22.73;51.29
12146;BME280;6136;47.032;15.398;2023-05-19T10:25:15;98108.66;;;22.28;50.63
12146;BME280;6136;47.032;15.398;2023-05-19T10:27:50;98110.41;;;21.84;53.72
12146;BME280;6136;47.032;15.398;2023-05-19T10:30:24;98105.81;;;21.49;53.74
12146;BME280;6136;47.032;15.398;2023-05-19T10:32:54;98101.56;;;22.27;50.97
12146;BME280;6136;47.032;15.398;2023-05-19T10:35:39;98106.19;;;22.52;50.17
12146;BME280;6136;47.032;15.398;2023-05-19T10:38:20;98106.16;;;21.81;53.99
12146;BME280;6136;47.032;15.398;2023-05-19T10:40:58;98108.47;;;21.21;51.69
12146;BME280;6136;47.032;15.398;2023-05-19T10:43:41;98100.09;;;20.78;58.63
12146;BME280;6136;47.032;15.398;2023-05-19T10:46:12;98104.38;;;21.45;54.96
12146;BME280;6136;47.032;15.398;2023-05-19T10:48:43;98099.88;;;21.36;53.91
12146;BME280;6136;47.032;15.398;2023-05-19T10:53:43;98097.00;;;21.47;53.00
12146;BME280;6136;47.032;15.398;2023-05-19T10:56:27;98101.66;;;22.78;49.72
12146;BME280;6136;47.032;15.398;2023-05-19T10:58:57;98103.00;;;22.57;49.62
12146;BME280;6136;47.032;15.398;2023-05-19T11:01:29;98099.22;;;22.93;47.18
12146;BME280;6136;47.032;15.398;2023-05-19T11:04:04;98094.44;;;22.87;47.00
12146;BME280;6136;47.032;15.398;2023-05-19T11:06:34;98098.72;;;23.66;45.81
12146;BME280;6136;47.032;15.398;2023-05-19T11:09:11;98090.75;;;24.47;43.69
12146;BME280;6136;47.032;15.398;2023-05-19T11:11:45;98084.66;;;24.28;47.60
12146;BME280;6136;47.032;15.398;2023-05-19T11:14:16;98077.47;;;25.00;41.25
12146;BME280;6136;47.032;15.398;2023-05-19T11:16:46;98079.66;;;25.13;41.65
12146;BME280;6136;47.032;15.398;2023-05-19T11:19:19;98072.94;;;25.40;42.06
12146;BME280;6136;47.032;15.398;2023-05-19T11:21:55;98073.25;;;24.98;42.37
12146;BME280;6136;47.032;15.398;2023-05-19T11:24:35;98077.47;;;25.08;41.46
12146;BME280;6136;47.032;15.398;2023-05-19T11:27:28;98082.44;;;24.24;46.82
12146;BME280;6136;47.032;15.398;2023-05-19T11:29:59;98075.66;;;24.12;46.33
12146;BME280;6136;47.032;15.398;2023-05-19T11:32:30;98074.66;;;24.53;44.75
12146;BME280;6136;47.032;15.398;2023-05-19T11:35:00;98071.06;;;23.96;44.84
12146;BME280;6136;47.032;15.398;2023-05-19T11:37:31;98072.28;;;24.26;44.13
12146;BME280;6136;47.032;15.398;2023-05-19T11:40:00;98077.75;;;23.68;44.70
12146;BME280;6136;47.032;15.398;2023-05-19T11:42:31;98062.00;;;23.21;43.59
12146;BME280;6136;47.032;15.398;2023-05-19T11:45:00;98079.56;;;22.39;47.57
12146;BME280;6136;47.032;15.398;2023-05-19T11:47:30;98082.41;;;22.38;48.52
12146;BME280;6136;47.032;15.398;2023-05-19T11:50:17;98070.00;;;21.92;51.72
12146;BME280;6136;47.032;15.398;2023-05-19T11:52:49;98063.81;;;22.35;47.71
12146;BME280;6136;47.032;15.398;2023-05-19T11:55:18;98057.09;;;22.39;49.61
12146;BME280;6136;47.032;15.398;2023-05-19T11:57:56;98067.88;;;22.74;46.46
12146;BME280;6136;47.032;15.398;2023-05-19T12:00:29;98051.59;;;23.00;45.16
12146;BME280;6136;47.032;15.398;2023-05-19T12:02:59;98058.63;;;22.59;48.99
12146;BME280;6136;47.032;15.398;2023-05-19T12:05:28;98054.09;;;23.28;46.36
12146;BME280;6136;47.032;15.398;2023-05-19T12:08:03;98051.44;;;23.86;44.31
12146;BME280;6136;47.032;15.398;2023-05-19T12:10:33;98042.47;;;23.85;43.54
12146;BME280;6136;47.032;15.398;2023-05-19T12:13:02;98057.66;;;23.70;45.22
12146;BME280;6136;47.032;15.398;2023-05-19T12:15:34;98049.34;;;23.64;43.73
12146;BME280;6136;47.032;15.398;2023-05-19T12:18:02;98051.88;;;23.73;42.63
12146;BME280;6136;47.032;15.398;2023-05-19T12:20:32;98043.06;;;22.61;45.16
12146;BME280;6136;47.032;15.398;2023-05-19T12:23:04;98056.72;;;22.34;45.35
12146;BME280;6136;47.032;15.398;2023-05-19T12:25:33;98048.88;;;22.23;47.24
12146;BME280;6136;47.032;15.398;2023-05-19T12:28:02;98041.16;;;21.92;47.34
12146;BME280;6136;47.032;15.398;2023-05-19T12:30:31;98049.53;;;20.99;51.42
12146;BME280;6136;47.032;15.398;2023-05-19T12:33:01;98041.91;;;21.67;48.43
12146;BME280;6136;47.032;15.398;2023-05-19T12:35:31;98033.66;;;21.86;47.30
12146;BME280;6136;47.032;15.398;2023-05-19T12:38:05;98045.47;;;21.22;50.86
12146;BME280;6136;47.032;15.398;2023-05-19T12:40:34;98036.25;;;21.43;52.90
12146;BME280;6136;47.032;15.398;2023-05-19T12:43:05;98030.31;;;21.84;49.69
12146;BME280;6136;47.032;15.398;2023-05-19T12:45:36;98032.63;;;22.15;48.97
12146;BME280;6136;47.032;15.398;2023-05-19T12:48:10;98026.75;;;22.01;51.39
12146;BME280;6136;47.032;15.398;2023-05-19T12:50:39;98027.34;;;21.60;49.58
12146;BME280;6136;47.032;15.398;2023-05-19T12:53:10;98036.50;;;21.49;50.34
12146;BME280;6136;47.032;15.398;2023-05-19T12:55:39;98037.00;;;21.17;49.65
12146;BME280;6136;47.032;15.398;2023-05-19T12:58:09;98019.59;;;20.75;51.66
12146;BME280;6136;47.032;15.398;2023-05-19T13:00:42;98041.19;;;20.56;57.14
12146;BME280;6136;47.032;15.398;2023-05-19T13:03:14;98019.41;;;20.39;54.25
12146;BME280;6136;47.032;15.398;2023-05-19T13:05:44;98020.13;;;20.22;54.07
12146;BME280;6136;47.032;15.398;2023-05-19T13:08:15;98006.81;;;20.30;56.98
12146;BME280;6136;47.032;15.398;2023-05-19T13:10:46;98013.88;;;20.78;53.89
12146;BME280;6136;47.032;15.398;2023-05-19T13:13:16;98020.59;;;21.56;51.97
12146;BME280;6136;47.032;15.398;2023-05-19T13:15:45;98014.69;;;21.43;52.86
12146;BME280;6136;47.032;15.398;2023-05-19T13:18:16;98010.72;;;21.47;53.70
12146;BME280;6136;47.032;15.398;2023-05-19T13:20:45;98019.78;;;21.46;50.62